sensor_id;sensor_type;location;lat;lon;timestamp;temperature;humidity
12223;DHT22;6174;49.058;8.524;2024-03-07T06:16:11;3.50;99.90
12223;DHT22;6174;49.058;8.524;2024-03-07T06:18:39;3.70;99.90
12223;DHT22;6174;49.058;8.524;2024-03-07T06:21:16;4.50;99.90
12223;DHT22;6174;49.058;8.524;2024-03-07T06:23:48;3.80;99.90
12223;DHT22;6174;49.058;8.524;2024-03-07T06:26:24;4.10;99.90
12223;DHT22;6174;49.058;8.524;2024-03-07T06:29:02;4.10;99.90
12223;DHT22;6174;49.058;8.524;2024-03-07T06:31:32;4.40;99.90
12223;DHT22;6174;49.058;8.524;2024-03-07T06:34:00;4.30;99.90
12223;DHT22;6174;49.058;8.524;2024-03-07T06:36:28;4.40;99.90
12223;DHT22;6174;49.058;8.524;2024-03-07T06:38:55;4.20;99.90
12223;DHT22;6174;49.058;8.524;2024-03-07T06:41:22;4.00;99.90
12223;DHT22;6174;49.058;8.524;2024-03-07T06:43:50;4.70;99.90
12223;DHT22;6174;49.058;8.524;2024-03-07T06:46:18;4.40;99.90
12223;DHT22;6174;49.058;8.524;2024-03-07T06:48:48;3.90;99.90
12223;DHT22;6174;49.058;8.524;2024-03-07T06:51:14;4.40;99.90
12223;DHT22;6174;49.058;8.524;2024-03-07T06:53:43;3.90;99.90
12223;DHT22;6174;49.058;8.524;2024-03-07T06:56:11;4.70;99.90
12223;DHT22;6174;49.058;8.524;2024-03-07T06:58:38;4.50;99.90
12223;DHT22;6174;49.058;8.524;2024-03-07T07:01:05;4.50;99.90
12223;DHT22;6174;49.058;8.524;2024-03-07T07:03:35;4.70;99.90
12223;DHT22;6174;49.058;8.524;2024-03-07T07:06:04;4.30;99.90
12223;DHT22;6174;49.058;8.524;2024-03-07T07:08:32;4.60;99.90
12223;DHT22;6174;49.058;8.524;2024-03-07T07:10:59;4.80;99.90
12223;DHT22;6174;49.058;8.524;2024-03-07T07:13:26;4.80;99.90
12223;DHT22;6174;49.058;8.524;2024-03-07T07:15:55;4.60;99.90
12223;DHT22;6174;49.058;8.524;2024-03-07T07:18:22;4.80;99.90
12223;DHT22;6174;49.058;8.524;2024-03-07T07:20:49;4.90;99.90
12223;DHT22;6174;49.058;8.524;2024-03-07T07:23:19;5.40;99.90
12223;DHT22;6174;49.058;8.524;2024-03-07T07:25:45;5.90;99.90
12223;DHT22;6174;49.058;8.524;2024-03-07T07:28:13;6.00;99.90
12223;DHT22;6174;49.058;8.524;2024-03-07T07:30:41;6.40;99.90
12223;DHT22;6174;49.058;8.524;2024-03-07T07:33:08;6.40;99.90
12223;DHT22;6174;49.058;8.524;2024-03-07T07:35:36;6.60;99.90
12223;DHT22;6174;49.058;8.524;2024-03-07T07:38:03;6.80;99.90
12223;DHT22;6174;49.058;8.524;2024-03-07T07:40:34;7.20;99.90
12223;DHT22;6174;49.058;8.524;2024-03-07T07:43:03;7.60;99.90
12223;DHT22;6174;49.058;8.524;2024-03-07T07:45:32;8.80;99.90
12223;DHT22;6174;49.058;8.524;2024-03-07T07:48:01;9.40;99.90
12223;DHT22;6174;49.058;8.524;2024-03-07T07:50:28;10.20;99.90
12223;DHT22;6174;49.058;8.524;2024-03-07T07:52:56;9.30;99.90
12223;DHT22;6174;49.058;8.524;2024-03-07T07:55:24;9.70;99.90
12223;DHT22;6174;49.058;8.524;2024-03-07T07:57:53;9.20;99.90
12223;DHT22;6174;49.058;8.524;2024-03-07T08:00:22;9.50;99.90
12223;DHT22;6174;49.058;8.524;2024-03-07T08:02:50;9.00;99.90
12223;DHT22;6174;49.058;8.524;2024-03-07T08:05:18;8.20;99.90
12223;DHT22;6174;49.058;8.524;2024-03-07T08:07:45;8.10;99.90
12223;DHT22;6174;49.058;8.524;2024-03-07T08:10:13;8.00;99.90
12223;DHT22;6174;49.058;8.524;2024-03-07T08:12:40;7.70;99.90
12223;DHT22;6174;49.058;8.524;2024-03-07T08:15:11;7.50;99.90
12223;DHT22;6174;49.058;8.524;2024-03-07T08:17:41;7.70;99.90
12223;DHT22;6174;49.058;8.524;2024-03-07T08:20:11;7.20;99.90
12223;DHT22;6174;49.058;8.524;2024-03-07T08:22:38;7.20;99.90
12223;DHT22;6174;49.058;8.524;2024-03-07T08:25:07;6.90;99.90
12223;DHT22;6174;49.058;8.524;2024-03-07T08:27:36;7.00;99.90
12223;DHT22;6174;49.058;8.524;2024-03-07T08:30:04;7.10;99.90
12223;DHT22;6174;49.058;8.524;2024-03-07T08:32:34;6.90;99.90
12223;DHT22;6174;49.058;8.524;2024-03-07T08:35:04;6.90;99.90
12223;DHT22;6174;49.058;8.524;2024-03-07T08:37:34;7.40;99.90
12223;DHT22;6174;49.058;8.524;2024-03-07T08:40:02;7.90;99.90
12223;DHT22;6174;49.058;8.524;2024-03-07T08:42:34;7.40;99.90
12223;DHT22;6174;49.058;8.524;2024-03-07T08:45:02;7.60;99.90
12223;DHT22;6174;49.058;8.524;2024-03-07T08:47:30;7.30;99.90
12223;DHT22;6174;49.058;8.524;2024-03-07T08:50:01;7.40;99.90
12223;DHT22;6174;49.058;8.524;2024-03-07T08:52:34;7.40;99.90
12223;DHT22;6174;49.058;8.524;2024-03-07T08:55:22;7.20;99.90
12223;DHT22;6174;49.058;8.524;2024-03-07T08:57:50;7.40;99.90
12223;DHT22;6174;49.058;8.524;2024-03-07T09:00:22;7.20;99.90
12223;DHT22;6174;49.058;8.524;2024-03-07T09:02:50;7.70;99.90
12223;DHT22;6174;49.058;8.524;2024-03-07T09:05:20;7.10;99.90
12223;DHT22;6174;49.058;8.524;2024-03-07T09:07:47;6.90;99.90
12223;DHT22;6174;49.058;8.524;2024-03-07T09:10:15;7.10;99.90
12223;DHT22;6174;49.058;8.524;2024-03-07T09:12:42;7.10;99.90
12223;DHT22;6174;49.058;8.524;2024-03-07T09:15:09;7.10;99.90
12223;DHT22;6174;49.058;8.524;2024-03-07T09:17:45;7.10;99.90
12223;DHT22;6174;49.058;8.524;2024-03-07T09:20:13;7.40;99.90
12223;DHT22;6174;49.058;8.524;2024-03-07T09:22:48;7.50;99.90
12223;DHT22;6174;49.058;8.524;2024-03-07T09:25:15;7.50;99.90
12223;DHT22;6174;49.058;8.524;2024-03-07T09:27:51;7.70;99.90
12223;DHT22;6174;49.058;8.524;2024-03-07T09:30:20;7.70;99.90
12223;DHT22;6174;49.058;8.524;2024-03-07T09:32:50;7.90;99.90
12223;DHT22;6174;49.058;8.524;2024-03-07T09:39:02;8.20;99.90
12223;DHT22;6174;49.058;8.524;2024-03-07T09:45:20;8.10;99.90
12223;DHT22;6174;49.058;8.524;2024-03-07T09:48:03;8.80;99.90
12223;DHT22;6174;49.058;8.524;2024-03-07T09:50:30;8.20;99.90
12223;DHT22;6174;49.058;8.524;2024-03-07T09:52:58;8.30;99.90
12223;DHT22;6174;49.058;8.524;2024-03-07T09:55:29;8.30;99.90
12223;DHT22;6174;49.058;8.524;2024-03-07T09:57:58;8.30;99.90
12223;DHT22;6174;49.058;8.524;2024-03-07T10:00:41;8.20;99.90
12223;DHT22;6174;49.058;8.524;2024-03-07T10:03:09;8.20;99.90
12223;DHT22;6174;49.058;8.524;2024-03-07T10:05:39;8.60;99.90
12223;DHT22;6174;49.058;8.524;2024-03-07T10:08:06;8.20;99.90
12223;DHT22;6174;49.058;8.524;2024-03-07T10:10:35;8.30;99.90
12223;DHT22;6174;49.058;8.524;2024-03-07T10:13:04;9.00;99.90
12223;DHT22;6174;49.058;8.524;2024-03-07T10:15:52;8.40;99.90
12223;DHT22;6174;49.058;8.524;2024-03-07T10:18:25;8.40;99.90
12223;DHT22;6174;49.058;8.524;2024-03-07T10:20:53;8.50;99.90
12223;DHT22;6174;49.058;8.524;2024-03-07T10:23:20;9.00;99.90
12223;DHT22;6174;49.058;8.524;2024-03-07T10:25:50;8.70;99.90
12223;DHT22;6174;49.058;8.524;2024-03-07T10:28:22;8.40;99.90
12223;DHT22;6174;49.058;8.524;2024-03-07T10:30:51;8.70;99.90
12223;DHT22;6174;49.058;8.524;2024-03-07T10:33:25;8.10;99.90
12223;DHT22;6174;49.058;8.524;2024-03-07T10:35:59;8.00;99.90
12223;DHT22;6174;49.058;8.524;2024-03-07T10:38:28;8.40;99.90
12223;DHT22;6174;49.058;8.524;2024-03-07T10:41:15;8.40;99.90
12223;DHT22;6174;49.058;8.524;2024-03-07T10:43:43;8.10;99.90
12223;DHT22;6174;49.058;8.524;2024-03-07T10:46:13;8.40;99.90
12223;DHT22;6174;49.058;8.524;2024-03-07T10:48:44;8.10;99.90
12223;DHT22;6174;49.058;8.524;2024-03-07T10:51:18;8.10;99.90
12223;DHT22;6174;49.058;8.524;2024-03-07T10:54:07;8.30;99.90
12223;DHT22;6174;49.058;8.524;2024-03-07T10:56:51;8.40;99.90
12223;DHT22;6174;49.058;8.524;2024-03-07T10:59:24;8.50;99.90
12223;DHT22;6174;49.058;8.524;2024-03-07T11:01:58;8.70;99.90
12223;DHT22;6174;49.058;8.524;2024-03-07T11:04:26;9.00;99.90
12223;DHT22;6174;49.058;8.524;2024-03-07T11:06:54;9.40;99.90
12223;DHT22;6174;49.058;8.524;2024-03-07T11:09:25;9.50;99.90
12223;DHT22;6174;49.058;8.524;2024-03-07T11:11:56;9.20;99.90
12223;DHT22;6174;49.058;8.524;2024-03-07T11:14:25;9.10;99.90
12223;DHT22;6174;49.058;8.524;2024-03-07T11:16:53;8.80;99.90
12223;DHT22;6174;49.058;8.524;2024-03-07T11:19:26;8.90;99.90
12223;DHT22;6174;49.058;8.524;2024-03-07T11:21:54;8.70;99.90
12223;DHT22;6174;49.058;8.524;2024-03-07T11:25:01;8.70;99.90
12223;DHT22;6174;49.058;8.524;2024-03-07T11:27:34;8.90;99.90
12223;DHT22;6174;49.058;8.524;2024-03-07T11:32:37;8.70;99.90
12223;DHT22;6174;49.058;8.524;2024-03-07T11:41:12;8.90;99.90
12223;DHT22;6174;49.058;8.524;2024-03-07T11:43:55;8.80;99.90
12223;DHT22;6174;49.058;8.524;2024-03-07T11:46:25;9.10;99.90
12223;DHT22;6174;49.058;8.524;2024-03-07T11:48:55;9.60;99.90
12223;DHT22;6174;49.058;8.524;2024-03-07T11:51:38;9.70;99.90
12223;DHT22;6174;49.058;8.524;2024-03-07T11:54:04;9.70;99.90
12223;DHT22;6174;49.058;8.524;2024-03-07T11:56:31;9.60;99.90
12223;DHT22;6174;49.058;8.524;2024-03-07T11:59:15;9.70;99.90
12223;DHT22;6174;49.058;8.524;2024-03-07T13:29:16;9.90;99.30
12223;DHT22;6174;49.058;8.524;2024-03-07T15:56:43;9.70;99.90
12223;DHT22;6174;49.058;8.524;2024-03-07T15:59:41;9.40;99.90
12223;DHT22;6174;49.058;8.524;2024-03-07T16:02:12;9.50;99.90
12223;DHT22;6174;49.058;8.524;2024-03-07T18:46:10;7.60;99.90
12223;DHT22;6174;49.058;8.524;2024-03-07T18:48:38;7.70;99.90
12223;DHT22;6174;49.058;8.524;2024-03-07T18:51:05;7.80;99.90
12223;DHT22;6174;49.058;8.524;2024-03-07T18:53:33;7.90;99.90
12223;DHT22;6174;49.058;8.524;2024-03-07T18:56:01;7.70;99.90
12223;DHT22;6174;49.058;8.524;2024-03-07T18:58:35;7.70;99.90
12223;DHT22;6174;49.058;8.524;2024-03-07T19:01:03;7.80;99.90
12223;DHT22;6174;49.058;8.524;2024-03-07T19:03:33;7.80;99.90
12223;DHT22;6174;49.058;8.524;2024-03-07T19:06:00;7.70;99.90
12223;DHT22;6174;49.058;8.524;2024-03-07T19:08:27;7.70;99.90
12223;DHT22;6174;49.058;8.524;2024-03-07T19:10:56;7.80;99.90
12223;DHT22;6174;49.058;8.524;2024-03-07T19:13:24;7.90;99.90
12223;DHT22;6174;49.058;8.524;2024-03-07T19:15:53;8.00;99.90
12223;DHT22;6174;49.058;8.524;2024-03-07T19:18:21;7.80;99.90
12223;DHT22;6174;49.058;8.524;2024-03-07T19:20:50;7.80;99.90
12223;DHT22;6174;49.058;8.524;2024-03-07T19:23:19;7.80;99.90
12223;DHT22;6174;49.058;8.524;2024-03-07T19:25:46;7.70;99.90
12223;DHT22;6174;49.058;8.524;2024-03-07T19:28:16;7.60;99.90
12223;DHT22;6174;49.058;8.524;2024-03-07T19:30:44;7.60;99.90
12223;DHT22;6174;49.058;8.524;2024-03-07T19:33:12;7.60;99.90
12223;DHT22;6174;49.058;8.524;2024-03-07T19:35:42;7.70;99.90
12223;DHT22;6174;49.058;8.524;2024-03-07T19:38:10;7.70;99.90
12223;DHT22;6174;49.058;8.524;2024-03-07T19:40:38;7.70;99.90
12223;DHT22;6174;49.058;8.524;2024-03-07T19:43:05;7.80;99.90
12223;DHT22;6174;49.058;8.524;2024-03-07T19:45:33;7.70;99.90
12223;DHT22;6174;49.058;8.524;2024-03-07T19:48:02;7.60;99.90
12223;DHT22;6174;49.058;8.524;2024-03-07T19:50:30;7.60;99.90
12223;DHT22;6174;49.058;8.524;2024-03-07T19:52:57;8.00;99.90
12223;DHT22;6174;49.058;8.524;2024-03-07T19:55:26;7.50;99.90
12223;DHT22;6174;49.058;8.524;2024-03-07T19:57:57;7.50;99.90
12223;DHT22;6174;49.058;8.524;2024-03-07T20:00:24;7.50;99.90
12223;DHT22;6174;49.058;8.524;2024-03-07T20:02:58;7.30;99.90
12223;DHT22;6174;49.058;8.524;2024-03-07T20:05:25;7.30;99.90
12223;DHT22;6174;49.058;8.524;2024-03-07T20:07:53;7.50;99.90
12223;DHT22;6174;49.058;8.524;2024-03-07T20:10:22;7.40;99.90
12223;DHT22;6174;49.058;8.524;2024-03-07T20:12:52;7.40;99.90
12223;DHT22;6174;49.058;8.524;2024-03-07T20:15:18;7.90;99.90
12223;DHT22;6174;49.058;8.524;2024-03-07T20:17:45;7.30;99.90
12223;DHT22;6174;49.058;8.524;2024-03-07T20:20:14;7.30;99.90
12223;DHT22;6174;49.058;8.524;2024-03-07T20:22:42;7.30;99.90
12223;DHT22;6174;49.058;8.524;2024-03-07T20:25:09;7.40;99.90
12223;DHT22;6174;49.058;8.524;2024-03-07T20:27:40;7.30;99.90
12223;DHT22;6174;49.058;8.524;2024-03-07T20:30:11;7.30;99.90
12223;DHT22;6174;49.058;8.524;2024-03-07T20:32:41;7.10;99.90
12223;DHT22;6174;49.058;8.524;2024-03-07T20:35:08;7.00;99.90
12223;DHT22;6174;49.058;8.524;2024-03-07T20:37:37;7.10;99.90
12223;DHT22;6174;49.058;8.524;2024-03-07T20:40:05;7.00;99.90
12223;DHT22;6174;49.058;8.524;2024-03-07T20:42:33;7.00;99.90
12223;DHT22;6174;49.058;8.524;2024-03-07T20:45:04;6.90;99.90
12223;DHT22;6174;49.058;8.524;2024-03-07T20:47:35;6.80;99.90
12223;DHT22;6174;49.058;8.524;2024-03-07T20:50:02;6.80;99.90
12223;DHT22;6174;49.058;8.524;2024-03-07T20:52:36;6.80;99.90
12223;DHT22;6174;49.058;8.524;2024-03-07T20:55:03;6.90;99.90
12223;DHT22;6174;49.058;8.524;2024-03-07T20:57:32;7.00;99.90
12223;DHT22;6174;49.058;8.524;2024-03-07T20:59:59;7.00;99.90
12223;DHT22;6174;49.058;8.524;2024-03-07T21:02:28;7.20;99.90
12223;DHT22;6174;49.058;8.524;2024-03-07T21:04:57;7.00;99.90
12223;DHT22;6174;49.058;8.524;2024-03-07T21:07:25;7.10;99.90
12223;DHT22;6174;49.058;8.524;2024-03-07T21:09:52;7.00;99.90
12223;DHT22;6174;49.058;8.524;2024-03-07T21:12:18;7.00;99.90
12223;DHT22;6174;49.058;8.524;2024-03-07T21:14:45;7.10;99.90
12223;DHT22;6174;49.058;8.524;2024-03-07T21:17:12;7.00;99.90
12223;DHT22;6174;49.058;8.524;2024-03-07T21:19:39;7.00;99.90
12223;DHT22;6174;49.058;8.524;2024-03-07T21:22:07;7.00;99.90
12223;DHT22;6174;49.058;8.524;2024-03-07T21:24:34;7.20;99.90
12223;DHT22;6174;49.058;8.524;2024-03-07T21:27:01;7.10;99.90
12223;DHT22;6174;49.058;8.524;2024-03-07T21:29:27;7.20;99.90
12223;DHT22;6174;49.058;8.524;2024-03-07T21:31:55;7.20;99.90
12223;DHT22;6174;49.058;8.524;2024-03-07T21:34:22;7.20;99.90
12223;DHT22;6174;49.058;8.524;2024-03-07T21:36:49;7.10;99.90
12223;DHT22;6174;49.058;8.524;2024-03-07T21:39:17;7.20;99.90
12223;DHT22;6174;49.058;8.524;2024-03-07T21:41:49;7.20;99.90
12223;DHT22;6174;49.058;8.524;2024-03-07T21:44:16;7.30;99.90
12223;DHT22;6174;49.058;8.524;2024-03-07T21:46:43;7.30;99.90
12223;DHT22;6174;49.058;8.524;2024-03-07T21:49:10;7.50;99.90
